Nottinghill, Missouri
Current Conditions -  °F | °C
As of 4:48 AM on Sunday 23 Nov 2014 (Local Time) from KBPK Reporting Station
Light Rain Light Rain  
Wind Chill: 54°   Ceiling: 1800
Heat Index: 54°   Visibility: 6mi
Dew Point: 52°   Wind: 8mph
Humidity: 94%   Direction: 140°SE
Pressure: 29.69"   Gusts: NA
Location:  36.7078°N, 92.6528°W
Report Text: KBPK 231048Z AUTO 14007KT 6SM -RA BR BKN018 OVC031 12/11 A2969 RMK AO2 RAB24 P0001
Loading
Personal Weather Stations






























Interactive Weather Map New forecast layout! Learn more

10-Day Weather Forecast

Advertisements
Track Severe Weather on mobile